Time;durP1;ratioP1;P1;durP2;ratioP2;P2;SDS_P1;SDS_P2;PMS_P1;PMS_P2;Temp;Humidity;BMP_temperature;BMP_pressure;BME280_temperature;BME280_humidity;BME280_pressure;Samples;Min_cycle;Max_cycle;Signal;HPM_P1;HPM_P2
2022/09/27 00:02:25;;;;;;;15.25;13.55;;;;;;;8.41;100.00;97527.66;2183708;81;21063;-86
2022/09/27 00:05:26;;;;;;;16.27;14.30;;;;;;;8.37;100.00;97526.46;2190457;80;21582;-87
2022/09/27 00:08:27;;;;;;;16.02;13.62;;;;;;;8.33;100.00;97527.83;2191344;80;21195;-86
2022/09/27 00:11:28;;;;;;;17.42;14.20;;;;;;;8.29;100.00;97528.70;2191517;80;20980;-86
2022/09/27 00:14:28;;;;;;;17.77;14.40;;;;;;;8.26;100.00;97518.66;2192580;80;21148;-86
2022/09/27 00:17:29;;;;;;;17.73;14.38;;;;;;;8.24;100.00;97520.66;2191945;80;21050;-84
2022/09/27 00:20:30;;;;;;;19.15;15.00;;;;;;;8.21;100.00;97521.03;2191420;80;20989;-86
2022/09/27 00:23:31;;;;;;;17.62;14.18;;;;;;;8.17;100.00;97523.23;2189581;80;21009;-84
2022/09/27 00:26:32;;;;;;;18.95;14.83;;;;;;;8.11;100.00;97518.78;2190301;80;21579;-84
2022/09/27 00:29:32;;;;;;;21.40;15.75;;;;;;;8.04;100.00;97518.42;2191339;80;20965;-85
2022/09/27 00:32:33;;;;;;;21.40;16.73;;;;;;;8.05;100.00;97509.64;2193018;80;21035;-84
2022/09/27 00:35:33;;;;;;;21.62;16.45;;;;;;;8.06;100.00;97505.53;2192238;80;20992;-84
2022/09/27 00:38:34;;;;;;;17.40;15.28;;;;;;;8.08;100.00;97509.24;2191752;81;21487;-85
2022/09/27 00:41:35;;;;;;;15.35;13.75;;;;;;;8.10;100.00;97508.55;2174257;81;21040;-84
2022/09/27 00:44:37;;;;;;;16.20;13.68;;;;;;;8.00;100.00;97499.77;2190231;80;21065;-83
2022/09/27 00:47:38;;;;;;;13.55;12.10;;;;;;;7.86;100.00;97513.70;2169579;81;20970;-85
2022/09/27 00:50:39;;;;;;;15.95;13.75;;;;;;;7.79;100.00;97506.38;2191931;80;21024;-85
2022/09/27 00:53:39;;;;;;;16.67;12.03;;;;;;;7.77;100.00;97503.93;2193424;81;21014;-84
2022/09/27 00:56:40;;;;;;;18.95;14.15;;;;;;;7.65;100.00;97493.23;2189332;80;20998;-83
2022/09/27 00:59:41;;;;;;;19.65;14.05;;;;;;;7.46;100.00;97497.01;2193585;80;21023;-85
2022/09/27 01:02:41;;;;;;;19.57;15.50;;;;;;;7.33;100.00;97493.32;2192110;80;21016;-85
2022/09/27 01:05:42;;;;;;;18.07;14.40;;;;;;;7.26;100.00;97492.45;2191982;80;20963;-83
2022/09/27 01:08:43;;;;;;;18.82;15.30;;;;;;;7.19;100.00;97495.49;2185154;80;20996;-83
2022/09/27 01:11:44;;;;;;;18.67;14.10;;;;;;;7.21;100.00;97484.89;2192936;80;21459;-84
2022/09/27 01:14:44;;;;;;;17.45;14.78;;;;;;;7.22;100.00;97487.80;2193403;80;21012;-85
2022/09/27 01:17:45;;;;;;;20.10;14.58;;;;;;;7.20;100.00;97494.50;2193282;80;21522;-83
2022/09/27 01:20:46;;;;;;;16.95;13.72;;;;;;;7.21;100.00;97484.89;2192106;80;21046;-82
2022/09/27 01:23:47;;;;;;;17.27;13.43;;;;;;;7.15;100.00;97477.34;2193100;80;22950;-83
2022/09/27 01:26:48;;;;;;;18.90;13.72;;;;;;;7.07;100.00;97479.58;2192325;81;21469;-82
2022/09/27 01:29:49;;;;;;;15.72;12.10;;;;;;;7.03;100.00;97471.02;2193579;80;21128;-84
2022/09/27 01:32:49;;;;;;;13.60;11.83;;;;;;;6.96;100.00;97463.67;2194257;80;20968;-84
2022/09/27 01:35:51;;;;;;;14.85;10.88;;;;;;;6.74;100.00;97461.05;2195306;80;21700;-84
2022/09/27 01:38:51;;;;;;;15.20;12.05;;;;;;;6.58;100.00;97459.17;2191380;81;20981;-82
2022/09/27 01:41:52;;;;;;;16.82;14.28;;;;;;;6.40;100.00;97446.11;2188345;80;21073;-82
2022/09/27 01:44:53;;;;;;;20.90;16.00;;;;;;;6.32;100.00;97450.13;2191429;80;21048;-86
2022/09/27 01:47:54;;;;;;;18.40;15.50;;;;;;;6.26;100.00;97445.64;2192500;80;21007;-84
2022/09/27 01:50:54;;;;;;;19.37;16.37;;;;;;;6.28;100.00;97447.06;2191380;80;21078;-86
2022/09/27 01:53:55;;;;;;;17.95;15.90;;;;;;;6.30;100.00;97442.17;2193246;80;21039;-84
2022/09/27 01:56:56;;;;;;;17.20;15.32;;;;;;;6.30;100.00;97434.38;2192356;80;21041;-86
2022/09/27 01:59:57;;;;;;;19.50;15.05;;;;;;;6.33;100.00;97430.93;2187636;80;21036;-86
2022/09/27 02:02:57;;;;;;;22.67;17.00;;;;;;;6.24;100.00;97430.73;2189976;80;20998;-83
2022/09/27 02:05:58;;;;;;;18.92;15.83;;;;;;;6.24;100.00;97435.93;2186030;80;21005;-82
2022/09/27 02:08:59;;;;;;;17.10;14.15;;;;;;;6.27;100.00;97428.56;2192881;80;20977;-82
2022/09/27 02:12:00;;;;;;;21.40;14.95;;;;;;;6.25;100.00;97432.34;2192939;80;20982;-83
2022/09/27 02:15:00;;;;;;;18.80;15.45;;;;;;;6.16;100.00;97425.14;2192271;80;21000;-85
2022/09/27 02:18:01;;;;;;;19.00;15.23;;;;;;;6.14;100.00;97423.72;2192458;80;21077;-85
2022/09/27 02:21:02;;;;;;;19.80;15.65;;;;;;;6.14;100.00;97418.02;2191486;80;21024;-84
2022/09/27 02:24:03;;;;;;;19.80;16.57;;;;;;;6.10;100.00;97417.26;2193405;80;21574;-85
2022/09/27 02:27:03;;;;;;;18.73;16.30;;;;;;;6.11;100.00;97419.67;2191842;80;20976;-86
2022/09/27 02:30:04;;;;;;;16.73;14.68;;;;;;;6.11;100.00;97411.88;2188272;81;21551;-85
2022/09/27 02:33:06;;;;;;;19.65;15.95;;;;;;;6.10;100.00;97412.06;2191561;80;21520;-85
2022/09/27 02:36:07;;;;;;;19.55;16.57;;;;;;;6.07;100.00;97408.54;2191270;80;21032;-85
2022/09/27 02:39:08;;;;;;;18.48;16.23;;;;;;;6.05;100.00;97405.32;2192151;80;21845;-83
2022/09/27 02:42:09;;;;;;;19.85;17.02;;;;;;;5.97;100.00;97406.23;2192801;80;21122;-84
2022/09/27 02:45:10;;;;;;;20.37;17.30;;;;;;;5.99;100.00;97406.34;2193177;80;20992;-87
2022/09/27 02:48:11;;;;;;;21.42;17.87;;;;;;;6.02;100.00;97402.57;2194786;80;21642;-85
2022/09/27 02:51:12;;;;;;;21.85;19.48;;;;;;;6.03;100.00;97395.58;2191641;80;20942;-85
2022/09/27 02:54:12;;;;;;;22.10;19.27;;;;;;;5.99;100.00;97393.85;2115792;83;21148;-86
2022/09/27 02:57:13;;;;;;;23.30;19.77;;;;;;;5.98;100.00;97389.16;2153101;82;21567;-82
2022/09/27 03:00:14;;;;;;;22.27;19.65;;;;;;;5.99;100.00;97389.95;2119399;83;21069;-85
2022/09/27 03:03:15;;;;;;;22.00;19.67;;;;;;;6.01;100.00;97387.97;2145289;83;21072;-85
2022/09/27 03:06:15;;;;;;;26.42;20.30;;;;;;;5.98;100.00;97379.25;2143851;83;21025;-85
2022/09/27 03:09:16;;;;;;;22.80;20.37;;;;;;;5.98;100.00;97394.84;2137736;83;21057;-83
2022/09/27 03:12:27;;;;;;;22.58;19.52;;;;;;;5.96;100.00;97380.74;2209925;80;21193;-84
2022/09/27 03:15:25;;;;;;;30.37;22.70;;;;;;;5.97;100.00;97379.75;2208659;80;21089;-86
2022/09/27 03:18:26;;;;;;;49.00;30.05;;;;;;;5.93;100.00;97375.09;2169844;81;21597;-86
2022/09/27 03:21:28;;;;;;;41.88;28.05;;;;;;;5.90;100.00;97381.45;2152498;82;21108;-83
2022/09/27 03:24:29;;;;;;;37.30;24.72;;;;;;;5.91;100.00;97379.17;2141490;82;21140;-83
2022/09/27 03:27:29;;;;;;;33.70;21.60;;;;;;;5.95;100.00;97377.03;2177154;81;20974;-82
2022/09/27 03:30:30;;;;;;;29.23;23.55;;;;;;;5.96;100.00;97369.05;2148337;81;20990;-84
2022/09/27 03:33:32;;;;;;;28.30;20.37;;;;;;;5.96;100.00;97369.05;2182104;81;21036;-85
2022/09/27 03:36:35;;;;;;;23.65;18.10;;;;;;;5.97;100.00;97362.86;2187120;81;21497;-85
2022/09/27 03:39:36;;;;;;;21.25;17.23;;;;;;;5.98;100.00;97361.06;2141802;81;21390;-84
2022/09/27 03:42:37;;;;;;;24.18;18.92;;;;;;;5.96;100.00;97353.95;2227034;80;20956;-83
2022/09/27 03:45:38;;;;;;;23.15;16.52;;;;;;;5.94;100.00;97348.11;2191500;81;21065;-83
2022/09/27 03:48:38;;;;;;;18.95;17.00;;;;;;;5.99;100.00;97343.19;2186687;81;21056;-83
2022/09/27 03:51:39;;;;;;;30.50;22.25;;;;;;;5.98;100.00;97347.58;2178239;81;21543;-85
2022/09/27 03:54:41;;;;;;;36.05;27.07;;;;;;;5.96;100.00;97339.17;2187272;81;21009;-84
2022/09/27 03:57:42;;;;;;;54.67;42.08;;;;;;;5.96;100.00;97337.88;2151606;81;21097;-85
2022/09/27 04:00:44;;;;;;;47.95;32.58;;;;;;;5.94;100.00;97328.63;2190556;81;21665;-84
2022/09/27 04:03:44;;;;;;;33.02;24.12;;;;;;;5.92;100.00;97331.41;2152472;81;21059;-85
2022/09/27 04:06:45;;;;;;;44.45;26.82;;;;;;;5.91;100.00;97322.51;2180791;81;21127;-85
2022/09/27 04:09:46;;;;;;;52.15;28.23;;;;;;;5.89;100.00;97320.07;2142095;82;20977;-85
2022/09/27 04:12:47;;;;;;;50.78;28.27;;;;;;;5.84;100.00;97327.59;2178433;81;21015;-85
2022/09/27 04:15:47;;;;;;;51.02;29.12;;;;;;;5.85;100.00;97324.03;2171417;81;21535;-85
2022/09/27 04:18:48;;;;;;;48.87;27.73;;;;;;;5.91;100.00;97329.00;2189143;81;21135;-85
2022/09/27 04:21:49;;;;;;;47.17;26.85;;;;;;;5.96;100.00;97327.48;2184646;81;21036;-85
2022/09/27 04:24:50;;;;;;;39.78;25.77;;;;;;;6.02;100.00;97314.72;2186589;81;20973;-85
2022/09/27 04:27:53;;;;;;;43.17;22.85;;;;;;;6.04;100.00;97314.88;2142138;81;21080;-85
2022/09/27 04:30:53;;;;;;;32.58;19.50;;;;;;;6.09;100.00;97326.00;2187574;81;21068;-85
2022/09/27 04:33:53;;;;;;;28.80;19.75;;;;;;;6.17;100.00;97318.08;2174508;81;21437;-84
2022/09/27 04:36:54;;;;;;;31.95;19.62;;;;;;;6.25;100.00;97314.87;2170410;82;20997;-85
2022/09/27 04:39:55;;;;;;;25.35;18.02;;;;;;;6.30;100.00;97319.99;2170521;82;21016;-85
2022/09/27 04:42:56;;;;;;;19.12;14.87;;;;;;;6.35;100.00;97324.95;2168405;81;21006;-85
2022/09/27 04:45:56;;;;;;;17.20;13.93;;;;;;;6.42;100.00;97328.92;2170913;82;21056;-84
2022/09/27 04:48:58;;;;;;;16.30;14.10;;;;;;;6.48;100.00;97327.66;2170019;81;21548;-85
2022/09/27 04:51:58;;;;;;;16.40;13.60;;;;;;;6.60;100.00;97321.48;2171530;81;21076;-84
2022/09/27 04:54:59;;;;;;;23.00;14.55;;;;;;;6.73;100.00;97325.47;2148358;82;20979;-85
2022/09/27 04:58:00;;;;;;;27.13;15.13;;;;;;;6.83;100.00;97325.14;2195829;81;20989;-85
2022/09/27 05:01:02;;;;;;;18.05;13.30;;;;;;;6.92;100.00;97321.90;2149772;81;21037;-84
2022/09/27 05:04:03;;;;;;;21.20;13.25;;;;;;;7.00;100.00;97327.77;2175895;81;21160;-85
2022/09/27 05:07:04;;;;;;;21.37;11.93;;;;;;;7.07;100.00;97329.12;2172769;81;20956;-84
2022/09/27 05:10:05;;;;;;;23.98;13.58;;;;;;;7.13;100.00;97324.42;2168100;81;21071;-83
2022/09/27 05:13:06;;;;;;;15.43;10.60;;;;;;;7.19;100.00;97321.07;2141446;81;21448;-84
2022/09/27 05:16:06;;;;;;;18.23;12.05;;;;;;;7.24;100.00;97321.81;2153882;81;21323;-85
2022/09/27 05:19:07;;;;;;;25.00;12.05;;;;;;;7.29;100.00;97327.23;2188765;81;21556;-86
2022/09/27 05:22:08;;;;;;;14.80;11.08;;;;;;;7.34;100.00;97322.27;2169367;81;21024;-84
2022/09/27 05:25:09;;;;;;;20.92;12.85;;;;;;;7.40;100.00;97333.19;2176122;81;21039;-84
2022/09/27 05:28:09;;;;;;;17.77;11.97;;;;;;;7.47;100.00;97331.94;2176095;81;21073;-84
2022/09/27 05:31:12;;;;;;;20.23;13.00;;;;;;;7.52;100.00;97330.87;2145579;82;21001;-84
2022/09/27 05:34:12;;;;;;;20.62;12.47;;;;;;;7.62;100.00;97335.22;2182835;81;20980;-84
2022/09/27 05:37:13;;;;;;;19.07;12.25;;;;;;;7.67;100.00;97333.62;2187142;81;21004;-84
2022/09/27 05:40:14;;;;;;;15.23;11.78;;;;;;;7.71;100.00;97330.15;2184532;81;20969;-84
2022/09/27 05:43:14;;;;;;;26.90;13.35;;;;;;;7.72;100.00;97320.53;2180694;81;21043;-83
2022/09/27 05:46:15;;;;;;;20.70;13.75;;;;;;;7.70;100.00;97304.59;2189573;81;21108;-83
2022/09/27 05:49:16;;;;;;;29.92;19.90;;;;;;;7.74;100.00;97313.31;2182419;81;21036;-84
2022/09/27 05:52:17;;;;;;;30.77;19.70;;;;;;;7.79;100.00;97313.55;2144106;82;21029;-83
2022/09/27 05:55:18;;;;;;;26.25;16.45;;;;;;;7.85;100.00;97314.05;2124250;81;21056;-86
2022/09/27 05:58:18;;;;;;;38.45;22.95;;;;;;;7.91;100.00;97315.38;2191067;81;21356;-84
2022/09/27 06:01:19;;;;;;;30.85;21.48;;;;;;;8.01;100.00;97322.02;2151197;82;21103;-82
2022/09/27 06:04:20;;;;;;;33.15;20.65;;;;;;;8.08;100.00;97313.72;2176213;81;20996;-83
2022/09/27 06:07:20;;;;;;;30.62;17.48;;;;;;;8.31;100.00;97315.45;2172364;81;21020;-85
2022/09/27 06:10:21;;;;;;;23.42;18.25;;;;;;;8.31;100.00;97315.45;2184268;81;21523;-83
2022/09/27 06:13:22;;;;;;;29.63;15.32;;;;;;;8.36;100.00;97311.79;2182233;81;21032;-84
2022/09/27 06:16:23;;;;;;;24.37;16.60;;;;;;;8.41;100.00;97309.40;2183830;81;21040;-83
2022/09/27 06:19:24;;;;;;;27.62;20.25;;;;;;;8.49;100.00;97308.38;2152723;81;21548;-83
2022/09/27 06:22:24;;;;;;;31.10;21.37;;;;;;;8.59;100.00;97305.36;2156196;83;21043;-84
2022/09/27 06:25:25;;;;;;;29.37;20.95;;;;;;;8.72;100.00;97306.69;2182588;81;21528;-84
2022/09/27 06:28:26;;;;;;;25.17;16.77;;;;;;;8.80;100.00;97310.39;2150202;82;21025;-84
2022/09/27 06:31:27;;;;;;;15.78;12.33;;;;;;;8.97;100.00;97322.03;2224913;80;21004;-84
2022/09/27 06:34:28;;;;;;;17.92;11.00;;;;;;;9.17;100.00;97319.38;2221141;80;20997;-84
2022/09/27 06:37:29;;;;;;;20.25;12.63;;;;;;;9.30;100.00;97311.50;2215166;80;21012;-84
2022/09/27 06:40:29;;;;;;;17.98;13.60;;;;;;;9.39;100.00;97302.94;2189254;81;20953;-83
2022/09/27 06:43:30;;;;;;;19.75;15.60;;;;;;;9.48;100.00;97302.20;2190910;81;21001;-84
2022/09/27 06:46:31;;;;;;;25.00;19.05;;;;;;;9.59;100.00;97306.78;2152303;81;21586;-83
2022/09/27 06:49:32;;;;;;;20.85;15.88;;;;;;;9.79;100.00;97311.95;2191234;81;21008;-84
2022/09/27 06:52:33;;;;;;;20.45;13.20;;;;;;;9.95;100.00;97317.48;2152052;82;21009;-86
2022/09/27 06:55:34;;;;;;;21.80;14.35;;;;;;;10.09;100.00;97310.37;2150694;83;20973;-87
2022/09/27 07:01:54;;;;;;;21.12;16.77;;;;;;;10.41;100.00;97307.27;2149697;82;21101;-86
2022/09/27 07:04:55;;;;;;;30.55;22.82;;;;;;;10.58;100.00;97308.86;2175453;81;21072;-85
2022/09/27 07:07:56;;;;;;;25.95;20.85;;;;;;;10.76;100.00;97312.84;2191498;81;20965;-86
2022/09/27 07:10:57;;;;;;;36.30;26.15;;;;;;;10.92;100.00;97304.95;2181433;81;21824;-83
2022/09/27 07:13:58;;;;;;;29.77;26.20;;;;;;;11.09;100.00;97298.66;2202921;80;20968;-86
2022/09/27 07:16:58;;;;;;;28.83;24.05;;;;;;;11.18;100.00;97296.56;2182814;81;21039;-85
2022/09/27 07:19:59;;;;;;;33.73;26.80;;;;;;;11.33;100.00;97294.36;2177391;81;21522;-84
2022/09/27 07:23:00;;;;;;;30.35;23.62;;;;;;;11.49;100.00;97296.41;2149076;81;21572;-85
2022/09/27 07:26:03;;;;;;;26.65;21.02;;;;;;;11.63;100.00;97301.80;2207800;80;21029;-85
2022/09/27 07:29:03;;;;;;;30.75;24.67;;;;;;;11.77;100.00;97297.69;2174890;81;21077;-85
2022/09/27 07:32:04;;;;;;;26.48;17.77;;;;;;;11.92;100.00;97302.06;2170576;81;21008;-84
2022/09/27 07:35:05;;;;;;;23.77;17.62;;;;;;;12.02;100.00;97299.70;2185476;81;21549;-82
2022/09/27 07:38:07;;;;;;;20.68;17.00;;;;;;;12.11;100.00;97301.52;2178364;81;20987;-86
2022/09/27 07:41:07;;;;;;;19.77;16.48;;;;;;;12.23;100.00;97305.77;2178307;81;21139;-86
2022/09/27 07:44:09;;;;;;;22.42;17.45;;;;;;;12.36;100.00;97302.67;2169028;81;21055;-83
2022/09/27 07:47:09;;;;;;;23.95;20.45;;;;;;;12.38;100.00;97298.00;2150256;81;21068;-83
2022/09/27 07:50:10;;;;;;;28.77;21.82;;;;;;;12.46;100.00;97297.16;2173680;81;22100;-84
2022/09/27 07:53:12;;;;;;;33.90;25.97;;;;;;;12.49;100.00;97303.27;2189759;81;21111;-85
2022/09/27 07:56:13;;;;;;;22.93;18.10;;;;;;;12.59;100.00;97301.91;2189322;81;21043;-87
2022/09/27 07:59:14;;;;;;;30.85;25.10;;;;;;;12.64;100.00;97300.21;2194076;81;21476;-87
2022/09/27 08:02:15;;;;;;;30.15;23.05;;;;;;;12.74;100.00;97297.82;2153073;82;21024;-87
2022/09/27 08:05:15;;;;;;;17.92;16.02;;;;;;;12.85;100.00;97301.48;2185167;81;21059;-85
2022/09/27 08:08:16;;;;;;;20.30;16.32;;;;;;;13.00;100.00;97294.47;2192536;81;21475;-84
2022/09/27 08:11:17;;;;;;;19.77;15.23;;;;;;;13.00;100.00;97295.27;2211239;80;21028;-86
2022/09/27 08:14:19;;;;;;;15.65;13.70;;;;;;;12.98;100.00;97280.22;2229263;80;21008;-87
2022/09/27 08:17:20;;;;;;;18.30;14.85;;;;;;;13.08;100.00;97279.16;2174952;81;21053;-86
2022/09/27 08:20:21;;;;;;;31.93;24.82;;;;;;;13.15;100.00;97280.84;2174201;82;21029;-86
2022/09/27 08:23:22;;;;;;;27.27;24.00;;;;;;;13.17;100.00;97285.38;2176110;81;21073;-86
2022/09/27 08:26:23;;;;;;;17.67;14.68;;;;;;;13.22;100.00;97289.45;2145607;82;21610;-86
2022/09/27 08:29:24;;;;;;;16.95;15.08;;;;;;;13.36;100.00;97291.61;2195700;81;21025;-87
2022/09/27 08:32:26;;;;;;;15.85;14.23;;;;;;;13.49;100.00;97290.53;2152289;83;21500;-87
2022/09/27 08:35:27;;;;;;;17.32;14.15;;;;;;;13.60;100.00;97290.22;2186689;81;21078;-84
2022/09/27 08:38:28;;;;;;;17.05;14.13;;;;;;;13.72;100.00;97282.31;2181992;81;21512;-88
2022/09/27 08:41:29;;;;;;;17.65;15.70;;;;;;;13.81;100.00;97277.77;2196258;81;21044;-85
2022/09/27 08:44:29;;;;;;;19.87;17.77;;;;;;;13.88;100.00;97273.66;2151897;82;20998;-85
2022/09/27 08:47:31;;;;;;;17.55;15.72;;;;;;;13.92;100.00;97269.02;2182798;81;21179;-85
2022/09/27 08:50:34;;;;;;;17.65;15.78;;;;;;;13.91;100.00;97262.69;2182175;81;21009;-86
2022/09/27 08:53:34;;;;;;;24.70;21.80;;;;;;;13.93;100.00;97264.03;2172148;81;21070;-84
2022/09/27 08:56:35;;;;;;;25.55;17.75;;;;;;;13.98;100.00;97277.78;2170940;81;21024;-83
2022/09/27 08:59:36;;;;;;;21.00;18.80;;;;;;;13.95;100.00;97272.48;2185913;81;21040;-85
2022/09/27 09:02:36;;;;;;;22.50;20.17;;;;;;;14.01;100.00;97273.91;2176645;81;21028;-87
2022/09/27 09:05:37;;;;;;;14.55;12.95;;;;;;;14.01;100.00;97269.44;2150827;81;21041;-85
2022/09/27 09:08:38;;;;;;;13.48;12.07;;;;;;;14.03;100.00;97261.30;2178084;81;21523;-86
2022/09/27 09:14:58;;;;;;;15.05;13.43;;;;;;;14.21;100.00;97261.09;2170558;81;21096;-87
2022/09/27 09:17:59;;;;;;;15.88;14.28;;;;;;;14.40;100.00;97251.14;2165051;81;21566;-88
2022/09/27 09:21:00;;;;;;;16.42;14.40;;;;;;;14.55;100.00;97251.94;2178791;81;21049;-86
2022/09/27 09:24:00;;;;;;;17.17;15.58;;;;;;;14.57;100.00;97248.02;2170330;81;21326;-89
2022/09/27 09:27:01;;;;;;;16.20;14.05;;;;;;;14.55;100.00;97246.15;2172522;81;21056;-88
2022/09/27 09:30:04;;;;;;;13.88;12.47;;;;;;;14.53;100.00;97235.55;2182811;81;21010;-90
2022/09/27 09:33:08;;;;;;;13.15;11.85;;;;;;;14.63;100.00;97242.29;2166007;81;21101;-87
2022/09/27 09:36:12;;;;;;;12.10;10.93;;;;;;;14.68;100.00;97247.13;2147508;81;21586;-85
2022/09/27 09:39:13;;;;;;;13.00;11.75;;;;;;;14.84;100.00;97236.30;2227823;80;21588;-89
2022/09/27 09:42:14;;;;;;;14.03;12.73;;;;;;;14.98;100.00;97236.73;2210829;80;20962;-88
2022/09/27 09:45:15;;;;;;;12.80;11.60;;;;;;;15.02;100.00;97226.80;2211351;80;21136;-87
2022/09/27 09:48:16;;;;;;;13.05;11.85;;;;;;;15.14;100.00;97219.29;2185897;81;21091;-88
2022/09/27 09:51:17;;;;;;;14.07;12.70;;;;;;;15.20;100.00;97207.25;2184380;81;21076;-87
2022/09/27 09:54:18;;;;;;;16.82;15.23;;;;;;;15.25;100.00;97208.61;2184548;81;21500;-86
2022/09/27 09:57:19;;;;;;;15.15;13.65;;;;;;;15.19;100.00;97205.66;2177484;81;21091;-86
2022/09/27 10:00:20;;;;;;;14.00;12.55;;;;;;;15.17;100.00;97206.41;2178109;81;21051;-85
2022/09/27 10:03:21;;;;;;;16.05;14.10;;;;;;;15.13;100.00;97203.99;2183248;81;21553;-87
2022/09/27 10:06:21;;;;;;;15.70;14.00;;;;;;;15.18;100.00;97209.84;2186040;81;20998;-87
2022/09/27 10:09:22;;;;;;;14.98;13.58;;;;;;;15.18;100.00;97196.66;2145008;81;22252;-88
2022/09/27 10:12:23;;;;;;;18.73;16.93;;;;;;;15.24;100.00;97191.73;2210311;80;21009;-89
2022/09/27 10:15:24;;;;;;;16.80;15.10;;;;;;;15.26;100.00;97197.55;2186305;81;20949;-87
2022/09/27 10:18:25;;;;;;;15.83;14.33;;;;;;;15.17;100.00;97187.95;2181824;81;21039;-89
2022/09/27 10:21:26;;;;;;;16.57;14.83;;;;;;;15.17;100.00;97182.68;2185424;81;21017;-87
2022/09/27 10:24:27;;;;;;;17.73;15.95;;;;;;;15.23;100.00;97184.34;2147558;81;21096;-87
2022/09/27 10:27:28;;;;;;;20.60;15.85;;;;;;;15.27;100.00;97182.83;2173822;81;21487;-89
2022/09/27 10:30:30;;;;;;;15.75;14.13;;;;;;;15.25;100.00;97180.94;2176641;81;21043;-88
2022/09/27 10:33:31;;;;;;;16.60;15.00;;;;;;;15.33;100.00;97174.43;2189289;81;21043;-89
2022/09/27 10:36:32;;;;;;;16.32;14.43;;;;;;;15.38;100.00;97175.02;2186580;81;20993;-88
2022/09/27 10:39:32;;;;;;;18.77;16.75;;;;;;;15.33;100.00;97165.20;2152400;81;21027;-87
2022/09/27 10:42:33;;;;;;;16.30;14.60;;;;;;;15.30;100.00;97170.45;2180513;81;21060;-88
2022/09/27 10:45:35;;;;;;;18.90;16.52;;;;;;;15.22;100.00;97160.34;2190956;81;20969;-88
2022/09/27 10:48:36;;;;;;;17.67;15.88;;;;;;;15.12;100.00;97161.55;2151805;83;21061;-88
2022/09/27 10:51:37;;;;;;;15.75;14.15;;;;;;;15.12;100.00;97156.80;2183046;81;21095;-88
2022/09/27 10:54:38;;;;;;;15.20;13.70;;;;;;;15.14;100.00;97150.75;2172842;81;21473;-88
2022/09/27 10:57:38;;;;;;;17.85;16.02;;;;;;;15.16;100.00;97145.50;2185548;81;21020;-88
2022/09/27 11:00:40;;;;;;;15.40;13.90;;;;;;;15.22;100.00;97139.25;2194412;81;21009;-87
2022/09/27 11:03:40;;;;;;;15.58;13.72;;;;;;;15.29;100.00;97135.91;2210228;80;21075;-88
2022/09/27 11:06:41;;;;;;;16.93;15.15;;;;;;;15.42;100.00;97130.75;2216405;80;21542;-87
2022/09/27 11:09:42;;;;;;;16.77;15.08;;;;;;;15.52;100.00;97131.38;2184419;81;22145;-88
2022/09/27 11:12:43;;;;;;;13.80;11.88;;;;;;;15.58;100.00;97125.11;2178599;81;21029;-87
2022/09/27 11:15:44;;;;;;;10.15;9.25;;;;;;;15.63;100.00;97123.36;2185399;81;20989;-89
2022/09/27 11:18:44;;;;;;;11.50;10.40;;;;;;;15.70;100.00;97120.49;2178178;81;21059;-89
2022/09/27 11:21:45;;;;;;;11.35;10.10;;;;;;;15.75;100.00;97123.72;2186931;81;21028;-89
2022/09/27 11:24:47;;;;;;;11.28;10.28;;;;;;;15.81;100.00;97121.38;2188140;81;20989;-89
2022/09/27 11:27:47;;;;;;;12.47;11.28;;;;;;;15.90;100.00;97109.31;2152376;81;21040;-89
2022/09/27 11:30:48;;;;;;;13.30;12.00;;;;;;;15.98;100.00;97104.09;2189734;81;21027;-89
2022/09/27 11:33:49;;;;;;;12.25;10.98;;;;;;;16.03;100.00;97101.50;2178299;81;21049;-88
2022/09/27 11:36:50;;;;;;;15.20;13.72;;;;;;;16.04;100.00;97091.22;2194881;81;21016;-89
2022/09/27 11:39:50;;;;;;;13.25;11.95;;;;;;;16.02;100.00;97102.56;2186429;81;21567;-88
2022/09/27 11:42:51;;;;;;;13.08;11.83;;;;;;;16.03;100.00;97090.42;2150043;81;21061;-89
2022/09/27 11:45:52;;;;;;;12.93;11.65;;;;;;;16.04;100.00;97097.29;2188932;81;21024;-88
2022/09/27 11:48:53;;;;;;;12.90;11.48;;;;;;;16.10;100.00;97094.17;2185693;81;21055;-88
2022/09/27 11:51:54;;;;;;;11.70;10.63;;;;;;;16.14;100.00;97093.92;2144014;82;21004;-88
2022/09/27 11:54:55;;;;;;;14.07;12.55;;;;;;;16.15;100.00;97092.88;2228018;80;21038;-88
2022/09/27 11:57:55;;;;;;;15.53;13.93;;;;;;;16.20;100.00;97081.83;2228794;80;21012;-86
2022/09/27 12:00:56;;;;;;;13.30;12.00;;;;;;;16.25;100.00;97077.61;2229074;80;20961;-86
2022/09/27 12:03:57;;;;;;;13.88;12.47;;;;;;;16.27;100.00;97084.22;2229205;80;21537;-87
2022/09/27 12:06:58;;;;;;;11.50;10.40;;;;;;;16.27;100.00;97084.75;2179427;81;21024;-89
2022/09/27 12:09:58;;;;;;;13.20;11.43;;;;;;;16.28;100.00;97086.37;2185375;81;21079;-88
2022/09/27 12:13:02;;;;;;;9.50;8.63;;;;;;;16.30;100.00;97069.20;2179580;81;21506;-88
2022/09/27 12:16:02;;;;;;;12.33;11.10;;;;;;;16.39;100.00;97070.84;2139965;82;21017;-88
2022/09/27 12:19:03;;;;;;;12.20;11.05;;;;;;;16.46;100.00;97071.41;2188914;81;21120;-89
2022/09/27 12:22:04;;;;;;;12.93;11.35;;;;;;;16.50;100.00;97065.34;2189438;81;21080;-90
2022/09/27 12:25:04;;;;;;;11.88;10.68;;;;;;;16.54;100.00;97067.46;2120958;82;21048;-88
2022/09/27 12:28:05;;;;;;;12.33;10.15;;;;;;;16.54;100.00;97061.66;2171598;81;21040;-89
2022/09/27 12:31:07;;;;;;;11.57;10.18;;;;;;;16.60;100.00;97060.63;2189958;81;21488;-88
2022/09/27 12:34:08;;;;;;;12.00;10.80;;;;;;;16.66;100.00;97054.33;2186743;81;21032;-88
2022/09/27 12:37:09;;;;;;;10.72;9.78;;;;;;;16.70;100.00;97058.06;2145208;81;21097;-87
2022/09/27 12:40:11;;;;;;;12.63;11.50;;;;;;;16.71;100.00;97053.04;2180372;81;21120;-87
2022/09/27 12:43:11;;;;;;;11.68;10.53;;;;;;;16.61;100.00;97048.22;2191911;81;21619;-88
2022/09/27 12:46:12;;;;;;;12.10;10.90;;;;;;;16.62;100.00;97048.48;2224534;80;21024;-88
2022/09/27 12:49:13;;;;;;;11.48;10.18;;;;;;;16.58;100.00;97054.82;2219136;80;21507;-89
2022/09/27 12:52:14;;;;;;;10.63;9.63;;;;;;;16.56;100.00;97050.33;2188670;81;21064;-89
2022/09/27 12:55:15;;;;;;;11.63;10.43;;;;;;;16.58;100.00;97048.73;2186946;81;21551;-89
2022/09/27 12:58:18;;;;;;;13.10;11.80;;;;;;;16.64;100.00;97045.87;2193564;81;21037;-89
2022/09/27 13:01:18;;;;;;;13.60;11.70;;;;;;;16.67;100.00;97042.70;2190245;81;21016;-89
2022/09/27 13:04:19;;;;;;;12.23;10.95;;;;;;;16.71;100.00;97035.06;2150479;81;21076;-89
2022/09/27 13:07:20;;;;;;;12.07;10.10;;;;;;;16.72;100.00;97029.52;2215105;80;20988;-89
2022/09/27 13:10:23;;;;;;;10.78;9.70;;;;;;;16.75;100.00;97031.66;2209962;80;21025;-88
2022/09/27 13:13:25;;;;;;;12.28;11.08;;;;;;;16.82;100.00;97021.36;2213047;80;21107;-88
2022/09/27 13:16:26;;;;;;;10.98;9.88;;;;;;;16.77;100.00;97019.50;2219313;80;21550;-88
2022/09/27 13:19:27;;;;;;;13.40;12.10;;;;;;;16.83;100.00;97015.05;2220507;80;21572;-87
2022/09/27 13:22:28;;;;;;;13.93;11.53;;;;;;;16.81;100.00;97007.34;2177720;81;21016;-88
2022/09/27 13:25:28;;;;;;;13.98;12.53;;;;;;;16.76;100.00;97006.82;2184898;81;21068;-85
2022/09/27 13:28:32;;;;;;;11.95;10.68;;;;;;;16.70;100.00;97005.21;2179510;81;21055;-88
2022/09/27 13:31:37;;;;;;;13.85;12.43;;;;;;;16.67;100.00;97002.27;2210212;80;21010;-88
2022/09/27 13:34:38;;;;;;;14.30;12.82;;;;;;;16.66;100.00;97002.01;2185204;81;21005;-87
2022/09/27 13:37:40;;;;;;;13.58;12.33;;;;;;;16.71;100.00;96998.87;2191478;81;21044;-88
2022/09/27 13:40:41;;;;;;;14.70;13.13;;;;;;;16.76;100.00;96995.45;2134750;82;21044;-85
2022/09/27 13:43:43;;;;;;;12.78;11.43;;;;;;;16.70;100.00;97003.09;2187758;81;21088;-87
2022/09/27 13:46:44;;;;;;;13.62;12.25;;;;;;;16.72;100.00;97008.38;2189369;81;21024;-88
2022/09/27 13:49:47;;;;;;;12.05;10.90;;;;;;;16.67;100.00;97003.06;2178249;81;21344;-88
2022/09/27 13:52:47;;;;;;;13.55;11.40;;;;;;;16.70;100.00;97002.56;2173469;81;21160;-87
2022/09/27 13:55:48;;;;;;;13.48;12.07;;;;;;;16.65;100.00;96995.14;2182484;81;21536;-89